sensor_id;sensor_type;location;lat;lon;timestamp;temperature;humidity
47590;DHT22;33316;52.298;9.056;2023-01-04T00:02:03;8.40;81.40
47590;DHT22;33316;52.298;9.056;2023-01-04T00:04:30;8.40;81.30
47590;DHT22;33316;52.298;9.056;2023-01-04T00:06:56;8.40;81.30
47590;DHT22;33316;52.298;9.056;2023-01-04T00:09:23;8.40;81.30
47590;DHT22;33316;52.298;9.056;2023-01-04T00:11:51;8.40;81.30
47590;DHT22;33316;52.298;9.056;2023-01-04T00:14:18;8.40;81.30
47590;DHT22;33316;52.298;9.056;2023-01-04T00:16:45;8.40;81.30
47590;DHT22;33316;52.298;9.056;2023-01-04T00:19:12;8.40;81.30
47590;DHT22;33316;52.298;9.056;2023-01-04T00:21:38;8.40;81.20
47590;DHT22;33316;52.298;9.056;2023-01-04T00:24:06;8.30;81.10
47590;DHT22;33316;52.298;9.056;2023-01-04T00:26:33;8.30;81.20
47590;DHT22;33316;52.298;9.056;2023-01-04T00:29:03;8.30;81.20
47590;DHT22;33316;52.298;9.056;2023-01-04T00:31:31;8.30;81.10
47590;DHT22;33316;52.298;9.056;2023-01-04T00:34:00;8.30;81.20
47590;DHT22;33316;52.298;9.056;2023-01-04T00:36:28;8.30;81.10
47590;DHT22;33316;52.298;9.056;2023-01-04T00:38:56;8.30;81.10
47590;DHT22;33316;52.298;9.056;2023-01-04T00:41:38;8.30;81.10
47590;DHT22;33316;52.298;9.056;2023-01-04T00:44:08;8.30;81.10
47590;DHT22;33316;52.298;9.056;2023-01-04T00:46:36;8.30;81.10
47590;DHT22;33316;52.298;9.056;2023-01-04T00:49:04;8.30;81.10
47590;DHT22;33316;52.298;9.056;2023-01-04T00:51:32;8.30;81.20
47590;DHT22;33316;52.298;9.056;2023-01-04T00:54:00;8.30;81.10
47590;DHT22;33316;52.298;9.056;2023-01-04T00:56:30;8.30;81.20
47590;DHT22;33316;52.298;9.056;2023-01-04T00:58:59;8.30;81.10
47590;DHT22;33316;52.298;9.056;2023-01-04T01:01:30;8.30;81.10
47590;DHT22;33316;52.298;9.056;2023-01-04T01:03:58;8.30;81.10
47590;DHT22;33316;52.298;9.056;2023-01-04T01:06:26;8.30;81.10
47590;DHT22;33316;52.298;9.056;2023-01-04T01:08:53;8.30;81.10
47590;DHT22;33316;52.298;9.056;2023-01-04T01:11:20;8.20;81.10
47590;DHT22;33316;52.298;9.056;2023-01-04T01:13:47;8.20;81.10
47590;DHT22;33316;52.298;9.056;2023-01-04T01:16:16;8.20;81.10
47590;DHT22;33316;52.298;9.056;2023-01-04T01:18:45;8.20;81.10
47590;DHT22;33316;52.298;9.056;2023-01-04T01:21:13;8.20;81.10
47590;DHT22;33316;52.298;9.056;2023-01-04T01:23:40;8.20;81.10
47590;DHT22;33316;52.298;9.056;2023-01-04T01:26:11;8.20;81.10
47590;DHT22;33316;52.298;9.056;2023-01-04T01:28:38;8.20;81.10
47590;DHT22;33316;52.298;9.056;2023-01-04T01:31:06;8.20;81.20
47590;DHT22;33316;52.298;9.056;2023-01-04T01:33:35;8.20;81.20
47590;DHT22;33316;52.298;9.056;2023-01-04T01:36:03;8.20;81.10
47590;DHT22;33316;52.298;9.056;2023-01-04T01:38:30;8.20;81.10
47590;DHT22;33316;52.298;9.056;2023-01-04T01:40:57;8.20;81.10
47590;DHT22;33316;52.298;9.056;2023-01-04T01:43:46;8.20;81.00
47590;DHT22;33316;52.298;9.056;2023-01-04T01:46:14;8.30;81.10
47590;DHT22;33316;52.298;9.056;2023-01-04T01:48:41;8.20;81.00
47590;DHT22;33316;52.298;9.056;2023-01-04T01:51:10;8.20;81.00
47590;DHT22;33316;52.298;9.056;2023-01-04T01:53:40;8.20;81.00
47590;DHT22;33316;52.298;9.056;2023-01-04T01:56:09;8.20;81.00
47590;DHT22;33316;52.298;9.056;2023-01-04T01:58:39;8.20;81.00
47590;DHT22;33316;52.298;9.056;2023-01-04T02:01:06;8.20;81.00
47590;DHT22;33316;52.298;9.056;2023-01-04T02:03:36;8.20;81.00
47590;DHT22;33316;52.298;9.056;2023-01-04T02:06:07;8.20;81.00
47590;DHT22;33316;52.298;9.056;2023-01-04T02:08:37;8.20;81.00
47590;DHT22;33316;52.298;9.056;2023-01-04T02:11:04;8.30;81.00
47590;DHT22;33316;52.298;9.056;2023-01-04T02:13:33;8.30;81.00
47590;DHT22;33316;52.298;9.056;2023-01-04T02:16:21;8.30;81.00
47590;DHT22;33316;52.298;9.056;2023-01-04T02:18:54;8.30;81.00
47590;DHT22;33316;52.298;9.056;2023-01-04T02:21:25;8.30;80.90
47590;DHT22;33316;52.298;9.056;2023-01-04T02:24:20;8.30;80.90
47590;DHT22;33316;52.298;9.056;2023-01-04T02:27:14;8.30;80.80
47590;DHT22;33316;52.298;9.056;2023-01-04T02:30:25;8.30;80.70
47590;DHT22;33316;52.298;9.056;2023-01-04T02:33:26;8.30;80.70
47590;DHT22;33316;52.298;9.056;2023-01-04T02:35:58;8.30;80.70
47590;DHT22;33316;52.298;9.056;2023-01-04T02:38:46;8.30;80.70
47590;DHT22;33316;52.298;9.056;2023-01-04T02:41:21;8.30;80.60
47590;DHT22;33316;52.298;9.056;2023-01-04T02:43:53;8.40;80.70
47590;DHT22;33316;52.298;9.056;2023-01-04T02:46:41;8.40;80.60
47590;DHT22;33316;52.298;9.056;2023-01-04T02:49:10;8.40;80.70
47590;DHT22;33316;52.298;9.056;2023-01-04T02:51:55;8.40;80.70
47590;DHT22;33316;52.298;9.056;2023-01-04T02:54:25;8.40;80.80
47590;DHT22;33316;52.298;9.056;2023-01-04T02:57:05;8.40;80.90
47590;DHT22;33316;52.298;9.056;2023-01-04T02:59:46;8.40;81.10
47590;DHT22;33316;52.298;9.056;2023-01-04T03:02:28;8.40;81.20
47590;DHT22;33316;52.298;9.056;2023-01-04T03:05:20;8.40;81.40
47590;DHT22;33316;52.298;9.056;2023-01-04T03:08:25;8.40;81.50
47590;DHT22;33316;52.298;9.056;2023-01-04T03:11:01;8.50;81.70
47590;DHT22;33316;52.298;9.056;2023-01-04T03:13:32;8.50;82.00
47590;DHT22;33316;52.298;9.056;2023-01-04T03:16:05;8.50;82.40
47590;DHT22;33316;52.298;9.056;2023-01-04T03:18:36;8.50;82.70
47590;DHT22;33316;52.298;9.056;2023-01-04T03:21:08;8.50;82.90
47590;DHT22;33316;52.298;9.056;2023-01-04T03:23:35;8.50;83.10
47590;DHT22;33316;52.298;9.056;2023-01-04T03:26:25;8.50;83.40
47590;DHT22;33316;52.298;9.056;2023-01-04T03:29:15;8.50;83.60
47590;DHT22;33316;52.298;9.056;2023-01-04T03:32:04;8.50;83.80
47590;DHT22;33316;52.298;9.056;2023-01-04T03:34:50;8.50;84.00
47590;DHT22;33316;52.298;9.056;2023-01-04T03:37:40;8.50;84.20
47590;DHT22;33316;52.298;9.056;2023-01-04T03:40:19;8.50;84.30
47590;DHT22;33316;52.298;9.056;2023-01-04T03:43:09;8.50;84.60
47590;DHT22;33316;52.298;9.056;2023-01-04T03:46:01;8.50;84.60
47590;DHT22;33316;52.298;9.056;2023-01-04T03:48:52;8.50;84.80
47590;DHT22;33316;52.298;9.056;2023-01-04T03:51:24;8.50;85.00
47590;DHT22;33316;52.298;9.056;2023-01-04T03:53:56;8.50;85.20
47590;DHT22;33316;52.298;9.056;2023-01-04T03:56:25;8.50;85.40
47590;DHT22;33316;52.298;9.056;2023-01-04T03:58:53;8.60;85.60
47590;DHT22;33316;52.298;9.056;2023-01-04T04:01:23;8.60;86.60
47590;DHT22;33316;52.298;9.056;2023-01-04T04:03:50;8.60;86.20
47590;DHT22;33316;52.298;9.056;2023-01-04T04:06:34;8.60;86.30
47590;DHT22;33316;52.298;9.056;2023-01-04T04:09:19;8.60;86.40
47590;DHT22;33316;52.298;9.056;2023-01-04T04:11:46;8.60;86.70
47590;DHT22;33316;52.298;9.056;2023-01-04T04:14:13;8.60;87.00
47590;DHT22;33316;52.298;9.056;2023-01-04T04:16:40;8.60;87.10
47590;DHT22;33316;52.298;9.056;2023-01-04T04:19:07;8.60;88.00
47590;DHT22;33316;52.298;9.056;2023-01-04T04:21:34;8.70;87.40
47590;DHT22;33316;52.298;9.056;2023-01-04T04:24:00;8.70;87.60
47590;DHT22;33316;52.298;9.056;2023-01-04T04:26:28;8.70;87.70
47590;DHT22;33316;52.298;9.056;2023-01-04T04:28:55;8.70;88.00
47590;DHT22;33316;52.298;9.056;2023-01-04T04:31:22;8.70;88.20
47590;DHT22;33316;52.298;9.056;2023-01-04T04:33:49;8.70;88.60
47590;DHT22;33316;52.298;9.056;2023-01-04T04:36:15;8.80;88.40
47590;DHT22;33316;52.298;9.056;2023-01-04T04:38:42;8.80;88.70
47590;DHT22;33316;52.298;9.056;2023-01-04T04:41:11;8.80;88.80
47590;DHT22;33316;52.298;9.056;2023-01-04T04:43:57;8.80;89.00
47590;DHT22;33316;52.298;9.056;2023-01-04T04:46:24;8.80;88.90
47590;DHT22;33316;52.298;9.056;2023-01-04T04:48:51;8.90;89.90
47590;DHT22;33316;52.298;9.056;2023-01-04T04:51:18;8.90;89.30
47590;DHT22;33316;52.298;9.056;2023-01-04T04:53:45;8.90;89.40
47590;DHT22;33316;52.298;9.056;2023-01-04T04:56:11;8.90;89.40
47590;DHT22;33316;52.298;9.056;2023-01-04T04:58:38;8.90;89.40
47590;DHT22;33316;52.298;9.056;2023-01-04T05:01:07;9.00;89.60
47590;DHT22;33316;52.298;9.056;2023-01-04T05:03:34;9.00;89.70
47590;DHT22;33316;52.298;9.056;2023-01-04T05:06:01;9.00;89.80
47590;DHT22;33316;52.298;9.056;2023-01-04T05:08:27;9.00;89.90
47590;DHT22;33316;52.298;9.056;2023-01-04T05:10:54;9.00;90.00
47590;DHT22;33316;52.298;9.056;2023-01-04T05:13:21;9.10;90.10
47590;DHT22;33316;52.298;9.056;2023-01-04T05:15:48;9.10;90.10
47590;DHT22;33316;52.298;9.056;2023-01-04T05:18:20;9.10;90.20
47590;DHT22;33316;52.298;9.056;2023-01-04T05:20:47;9.10;90.20
47590;DHT22;33316;52.298;9.056;2023-01-04T05:23:15;9.10;90.40
47590;DHT22;33316;52.298;9.056;2023-01-04T05:25:42;9.10;90.40
47590;DHT22;33316;52.298;9.056;2023-01-04T05:28:09;9.10;90.80
47590;DHT22;33316;52.298;9.056;2023-01-04T05:30:36;9.20;90.50
47590;DHT22;33316;52.298;9.056;2023-01-04T05:33:22;9.20;90.60
47590;DHT22;33316;52.298;9.056;2023-01-04T05:35:50;9.20;90.70
47590;DHT22;33316;52.298;9.056;2023-01-04T05:38:18;9.20;90.70
47590;DHT22;33316;52.298;9.056;2023-01-04T05:40:45;9.20;90.80
47590;DHT22;33316;52.298;9.056;2023-01-04T05:43:12;9.20;90.80
47590;DHT22;33316;52.298;9.056;2023-01-04T05:45:41;9.20;90.90
47590;DHT22;33316;52.298;9.056;2023-01-04T05:48:08;9.20;91.00
47590;DHT22;33316;52.298;9.056;2023-01-04T05:50:36;9.30;91.00
47590;DHT22;33316;52.298;9.056;2023-01-04T05:53:03;9.30;91.10
47590;DHT22;33316;52.298;9.056;2023-01-04T05:55:31;9.30;91.10
47590;DHT22;33316;52.298;9.056;2023-01-04T05:57:58;9.30;91.10
47590;DHT22;33316;52.298;9.056;2023-01-04T06:00:25;9.30;91.10
47590;DHT22;33316;52.298;9.056;2023-01-04T06:02:52;9.30;91.10
47590;DHT22;33316;52.298;9.056;2023-01-04T06:05:19;9.30;91.10
47590;DHT22;33316;52.298;9.056;2023-01-04T06:07:48;9.40;91.20
47590;DHT22;33316;52.298;9.056;2023-01-04T06:10:15;9.40;91.20
47590;DHT22;33316;52.298;9.056;2023-01-04T06:12:42;9.40;91.20
47590;DHT22;33316;52.298;9.056;2023-01-04T06:15:09;9.40;91.30
47590;DHT22;33316;52.298;9.056;2023-01-04T06:17:37;9.40;91.30
47590;DHT22;33316;52.298;9.056;2023-01-04T06:20:06;9.50;91.40
47590;DHT22;33316;52.298;9.056;2023-01-04T06:22:34;9.50;91.40
47590;DHT22;33316;52.298;9.056;2023-01-04T06:25:02;9.50;91.40
47590;DHT22;33316;52.298;9.056;2023-01-04T06:27:29;9.50;91.40
47590;DHT22;33316;52.298;9.056;2023-01-04T06:29:55;9.50;91.40
47590;DHT22;33316;52.298;9.056;2023-01-04T06:32:22;9.60;91.50
47590;DHT22;33316;52.298;9.056;2023-01-04T06:34:49;9.60;91.50
47590;DHT22;33316;52.298;9.056;2023-01-04T06:37:16;9.60;91.50
47590;DHT22;33316;52.298;9.056;2023-01-04T06:39:43;9.60;91.50
47590;DHT22;33316;52.298;9.056;2023-01-04T06:42:11;9.60;91.50
47590;DHT22;33316;52.298;9.056;2023-01-04T06:44:52;9.60;91.40
47590;DHT22;33316;52.298;9.056;2023-01-04T06:47:19;9.70;91.40
47590;DHT22;33316;52.298;9.056;2023-01-04T06:49:45;9.70;91.40
47590;DHT22;33316;52.298;9.056;2023-01-04T06:52:12;9.70;91.40
47590;DHT22;33316;52.298;9.056;2023-01-04T06:54:39;9.70;91.70
47590;DHT22;33316;52.298;9.056;2023-01-04T06:57:05;9.70;91.30
47590;DHT22;33316;52.298;9.056;2023-01-04T06:59:33;9.70;91.30
47590;DHT22;33316;52.298;9.056;2023-01-04T07:02:00;9.80;91.30
47590;DHT22;33316;52.298;9.056;2023-01-04T07:04:27;9.80;91.30
47590;DHT22;33316;52.298;9.056;2023-01-04T07:06:53;9.80;91.30
47590;DHT22;33316;52.298;9.056;2023-01-04T07:09:22;9.80;91.30
47590;DHT22;33316;52.298;9.056;2023-01-04T07:11:48;9.80;91.30
47590;DHT22;33316;52.298;9.056;2023-01-04T07:14:15;9.80;91.30
47590;DHT22;33316;52.298;9.056;2023-01-04T07:16:43;9.80;91.30
47590;DHT22;33316;52.298;9.056;2023-01-04T07:19:10;9.80;91.30
47590;DHT22;33316;52.298;9.056;2023-01-04T07:21:37;9.90;91.30
47590;DHT22;33316;52.298;9.056;2023-01-04T07:24:04;9.90;91.30
47590;DHT22;33316;52.298;9.056;2023-01-04T07:26:30;9.90;91.30
47590;DHT22;33316;52.298;9.056;2023-01-04T07:28:57;9.90;91.30
47590;DHT22;33316;52.298;9.056;2023-01-04T07:31:45;9.90;91.30
47590;DHT22;33316;52.298;9.056;2023-01-04T07:34:13;9.90;91.30
47590;DHT22;33316;52.298;9.056;2023-01-04T07:36:40;10.00;91.30
47590;DHT22;33316;52.298;9.056;2023-01-04T07:39:07;10.00;91.30
47590;DHT22;33316;52.298;9.056;2023-01-04T07:41:37;10.00;91.30
47590;DHT22;33316;52.298;9.056;2023-01-04T07:44:04;10.00;91.30
47590;DHT22;33316;52.298;9.056;2023-01-04T07:46:31;10.00;91.30
47590;DHT22;33316;52.298;9.056;2023-01-04T07:48:59;10.00;91.30
47590;DHT22;33316;52.298;9.056;2023-01-04T07:51:26;10.00;91.30
47590;DHT22;33316;52.298;9.056;2023-01-04T07:53:53;10.10;91.30
47590;DHT22;33316;52.298;9.056;2023-01-04T07:56:20;10.10;91.30
47590;DHT22;33316;52.298;9.056;2023-01-04T07:58:46;10.10;91.30
47590;DHT22;33316;52.298;9.056;2023-01-04T08:01:15;10.10;91.30
47590;DHT22;33316;52.298;9.056;2023-01-04T08:03:43;10.10;91.30
47590;DHT22;33316;52.298;9.056;2023-01-04T08:06:13;10.10;91.30
47590;DHT22;33316;52.298;9.056;2023-01-04T08:08:40;10.10;91.30
47590;DHT22;33316;52.298;9.056;2023-01-04T08:11:09;10.20;91.40
47590;DHT22;33316;52.298;9.056;2023-01-04T08:13:36;10.20;91.40
47590;DHT22;33316;52.298;9.056;2023-01-04T08:16:03;10.20;91.30
47590;DHT22;33316;52.298;9.056;2023-01-04T08:18:30;10.20;91.40
47590;DHT22;33316;52.298;9.056;2023-01-04T08:21:01;10.20;91.40
47590;DHT22;33316;52.298;9.056;2023-01-04T08:23:29;10.20;91.40
47590;DHT22;33316;52.298;9.056;2023-01-04T08:26:01;10.20;91.40
47590;DHT22;33316;52.298;9.056;2023-01-04T08:28:28;10.30;91.50
47590;DHT22;33316;52.298;9.056;2023-01-04T08:30:55;10.30;91.50
47590;DHT22;33316;52.298;9.056;2023-01-04T08:33:22;10.30;91.60
47590;DHT22;33316;52.298;9.056;2023-01-04T08:35:49;10.30;91.70
47590;DHT22;33316;52.298;9.056;2023-01-04T08:38:16;10.30;91.70
47590;DHT22;33316;52.298;9.056;2023-01-04T08:40:44;10.30;91.80
47590;DHT22;33316;52.298;9.056;2023-01-04T08:43:11;10.30;91.90
47590;DHT22;33316;52.298;9.056;2023-01-04T08:45:37;10.30;92.00
47590;DHT22;33316;52.298;9.056;2023-01-04T08:48:04;10.30;92.00
47590;DHT22;33316;52.298;9.056;2023-01-04T08:50:31;10.30;92.00
47590;DHT22;33316;52.298;9.056;2023-01-04T08:52:58;10.30;92.10
47590;DHT22;33316;52.298;9.056;2023-01-04T08:55:24;10.30;92.10
47590;DHT22;33316;52.298;9.056;2023-01-04T08:57:52;10.40;92.10
47590;DHT22;33316;52.298;9.056;2023-01-04T09:00:19;10.40;92.20
47590;DHT22;33316;52.298;9.056;2023-01-04T09:02:46;10.40;92.20
47590;DHT22;33316;52.298;9.056;2023-01-04T09:05:13;10.40;92.20
47590;DHT22;33316;52.298;9.056;2023-01-04T09:07:40;10.40;92.20
47590;DHT22;33316;52.298;9.056;2023-01-04T09:10:08;10.40;92.60
47590;DHT22;33316;52.298;9.056;2023-01-04T09:12:34;10.40;92.20
47590;DHT22;33316;52.298;9.056;2023-01-04T09:15:03;10.40;92.20
47590;DHT22;33316;52.298;9.056;2023-01-04T09:17:30;10.40;92.20
47590;DHT22;33316;52.298;9.056;2023-01-04T09:19:57;10.50;92.20
47590;DHT22;33316;52.298;9.056;2023-01-04T09:22:24;10.50;92.20
47590;DHT22;33316;52.298;9.056;2023-01-04T09:24:50;10.50;92.20
47590;DHT22;33316;52.298;9.056;2023-01-04T09:27:18;10.50;92.20
47590;DHT22;33316;52.298;9.056;2023-01-04T09:29:48;10.50;92.20
47590;DHT22;33316;52.298;9.056;2023-01-04T09:32:16;10.50;92.20
47590;DHT22;33316;52.298;9.056;2023-01-04T09:34:43;10.50;92.20
47590;DHT22;33316;52.298;9.056;2023-01-04T09:37:10;10.60;92.30
47590;DHT22;33316;52.298;9.056;2023-01-04T09:39:36;10.60;92.30
47590;DHT22;33316;52.298;9.056;2023-01-04T09:42:10;10.60;92.30
47590;DHT22;33316;52.298;9.056;2023-01-04T09:44:42;10.60;92.30
47590;DHT22;33316;52.298;9.056;2023-01-04T09:47:11;10.60;92.30
47590;DHT22;33316;52.298;9.056;2023-01-04T09:49:44;10.70;92.30
47590;DHT22;33316;52.298;9.056;2023-01-04T09:52:16;10.70;92.30
47590;DHT22;33316;52.298;9.056;2023-01-04T09:54:48;10.70;92.30
47590;DHT22;33316;52.298;9.056;2023-01-04T09:57:21;10.70;92.30
47590;DHT22;33316;52.298;9.056;2023-01-04T09:59:51;10.80;92.30
47590;DHT22;33316;52.298;9.056;2023-01-04T10:02:23;10.80;92.30
47590;DHT22;33316;52.298;9.056;2023-01-04T10:04:53;10.80;92.30
47590;DHT22;33316;52.298;9.056;2023-01-04T10:07:23;10.80;92.40
47590;DHT22;33316;52.298;9.056;2023-01-04T10:09:51;10.80;92.40
47590;DHT22;33316;52.298;9.056;2023-01-04T10:12:32;10.80;92.40
47590;DHT22;33316;52.298;9.056;2023-01-04T10:15:08;10.80;92.50
47590;DHT22;33316;52.298;9.056;2023-01-04T10:17:50;10.80;92.50
47590;DHT22;33316;52.298;9.056;2023-01-04T10:20:54;10.80;92.90
47590;DHT22;33316;52.298;9.056;2023-01-04T10:23:31;10.80;92.60
47590;DHT22;33316;52.298;9.056;2023-01-04T10:26:07;10.80;92.50
47590;DHT22;33316;52.298;9.056;2023-01-04T10:28:50;10.80;92.50
47590;DHT22;33316;52.298;9.056;2023-01-04T10:31:25;10.80;92.50
47590;DHT22;33316;52.298;9.056;2023-01-04T10:33:57;10.80;92.50
47590;DHT22;33316;52.298;9.056;2023-01-04T10:36:28;10.80;92.50
47590;DHT22;33316;52.298;9.056;2023-01-04T10:38:59;10.80;92.90
47590;DHT22;33316;52.298;9.056;2023-01-04T10:41:29;10.80;92.60
47590;DHT22;33316;52.298;9.056;2023-01-04T10:44:03;10.80;92.70
47590;DHT22;33316;52.298;9.056;2023-01-04T10:46:36;10.80;92.70
47590;DHT22;33316;52.298;9.056;2023-01-04T10:49:10;10.80;92.80
47590;DHT22;33316;52.298;9.056;2023-01-04T10:51:42;10.90;92.90
47590;DHT22;33316;52.298;9.056;2023-01-04T10:54:15;10.90;92.90
47590;DHT22;33316;52.298;9.056;2023-01-04T10:56:49;10.90;93.20
47590;DHT22;33316;52.298;9.056;2023-01-04T10:59:21;10.90;92.90
47590;DHT22;33316;52.298;9.056;2023-01-04T11:01:52;10.90;93.00
47590;DHT22;33316;52.298;9.056;2023-01-04T11:04:24;10.90;93.00
47590;DHT22;33316;52.298;9.056;2023-01-04T11:06:56;10.90;93.10
47590;DHT22;33316;52.298;9.056;2023-01-04T11:09:31;10.90;93.10
47590;DHT22;33316;52.298;9.056;2023-01-04T11:12:00;10.90;93.10
47590;DHT22;33316;52.298;9.056;2023-01-04T11:14:27;11.00;93.10
47590;DHT22;33316;52.298;9.056;2023-01-04T11:16:58;11.00;93.20
47590;DHT22;33316;52.298;9.056;2023-01-04T11:19:27;11.00;93.20
47590;DHT22;33316;52.298;9.056;2023-01-04T11:21:59;11.00;93.20
47590;DHT22;33316;52.298;9.056;2023-01-04T11:24:30;11.00;93.30
47590;DHT22;33316;52.298;9.056;2023-01-04T11:27:01;11.00;93.40
47590;DHT22;33316;52.298;9.056;2023-01-04T11:29:33;11.00;93.40
47590;DHT22;33316;52.298;9.056;2023-01-04T11:32:02;11.00;93.40
47590;DHT22;33316;52.298;9.056;2023-01-04T11:34:46;11.00;93.60
47590;DHT22;33316;52.298;9.056;2023-01-04T11:37:26;11.00;93.40
47590;DHT22;33316;52.298;9.056;2023-01-04T11:43:11;11.00;93.50
47590;DHT22;33316;52.298;9.056;2023-01-04T11:45:52;11.00;93.50
47590;DHT22;33316;52.298;9.056;2023-01-04T11:48:30;11.00;93.50
47590;DHT22;33316;52.298;9.056;2023-01-04T11:50:57;11.10;93.50
47590;DHT22;33316;52.298;9.056;2023-01-04T11:53:31;11.10;93.50
47590;DHT22;33316;52.298;9.056;2023-01-04T11:56:19;11.10;93.60
47590;DHT22;33316;52.298;9.056;2023-01-04T11:59:11;11.10;93.70
47590;DHT22;33316;52.298;9.056;2023-01-04T12:01:40;11.10;93.70
47590;DHT22;33316;52.298;9.056;2023-01-04T12:04:11;11.10;93.60
47590;DHT22;33316;52.298;9.056;2023-01-04T12:06:44;11.20;93.70
47590;DHT22;33316;52.298;9.056;2023-01-04T12:09:15;11.20;93.70
47590;DHT22;33316;52.298;9.056;2023-01-04T12:11:45;11.10;93.60
47590;DHT22;33316;52.298;9.056;2023-01-04T12:14:19;11.20;93.70
47590;DHT22;33316;52.298;9.056;2023-01-04T12:16:53;11.20;93.60
47590;DHT22;33316;52.298;9.056;2023-01-04T12:19:21;11.20;93.60
47590;DHT22;33316;52.298;9.056;2023-01-04T12:21:49;11.20;93.60
47590;DHT22;33316;52.298;9.056;2023-01-04T12:24:20;11.20;93.60
47590;DHT22;33316;52.298;9.056;2023-01-04T12:26:50;11.30;93.70
47590;DHT22;33316;52.298;9.056;2023-01-04T12:29:54;11.30;93.70
47590;DHT22;33316;52.298;9.056;2023-01-04T12:45:10;11.30;93.80
47590;DHT22;33316;52.298;9.056;2023-01-04T12:47:41;11.40;93.80
47590;DHT22;33316;52.298;9.056;2023-01-04T12:50:25;11.40;93.80
47590;DHT22;33316;52.298;9.056;2023-01-04T12:52:58;11.40;93.80
47590;DHT22;33316;52.298;9.056;2023-01-04T12:55:55;11.40;93.80
47590;DHT22;33316;52.298;9.056;2023-01-04T12:58:39;11.40;94.00
47590;DHT22;33316;52.298;9.056;2023-01-04T13:01:19;11.40;94.00
47590;DHT22;33316;52.298;9.056;2023-01-04T13:03:54;11.40;93.90
47590;DHT22;33316;52.298;9.056;2023-01-04T13:06:22;11.40;93.90
47590;DHT22;33316;52.298;9.056;2023-01-04T13:08:51;11.40;93.90
47590;DHT22;33316;52.298;9.056;2023-01-04T13:11:35;11.40;93.90
47590;DHT22;33316;52.298;9.056;2023-01-04T13:14:09;11.40;94.00
47590;DHT22;33316;52.298;9.056;2023-01-04T13:16:47;11.40;94.00
47590;DHT22;33316;52.298;9.056;2023-01-04T13:19:19;11.50;94.10
47590;DHT22;33316;52.298;9.056;2023-01-04T13:21:47;11.50;94.10
47590;DHT22;33316;52.298;9.056;2023-01-04T13:24:22;11.50;94.10
47590;DHT22;33316;52.298;9.056;2023-01-04T13:26:52;11.50;94.10
47590;DHT22;33316;52.298;9.056;2023-01-04T13:29:21;11.50;94.10
47590;DHT22;33316;52.298;9.056;2023-01-04T13:31:53;11.50;94.10
47590;DHT22;33316;52.298;9.056;2023-01-04T13:34:28;11.60;94.20
47590;DHT22;33316;52.298;9.056;2023-01-04T13:37:11;11.60;94.10
47590;DHT22;33316;52.298;9.056;2023-01-04T13:39:40;11.60;94.10
47590;DHT22;33316;52.298;9.056;2023-01-04T13:42:15;11.60;94.20
47590;DHT22;33316;52.298;9.056;2023-01-04T13:45:16;11.60;94.20
47590;DHT22;33316;52.298;9.056;2023-01-04T13:47:54;11.60;94.20
47590;DHT22;33316;52.298;9.056;2023-01-04T13:50:33;11.60;94.10
47590;DHT22;33316;52.298;9.056;2023-01-04T13:53:04;11.70;94.20
47590;DHT22;33316;52.298;9.056;2023-01-04T13:55:32;11.70;94.20
47590;DHT22;33316;52.298;9.056;2023-01-04T13:58:00;11.70;94.20
47590;DHT22;33316;52.298;9.056;2023-01-04T14:00:29;11.70;94.20
47590;DHT22;33316;52.298;9.056;2023-01-04T14:03:10;11.70;94.20
47590;DHT22;33316;52.298;9.056;2023-01-04T14:05:44;11.70;94.20
47590;DHT22;33316;52.298;9.056;2023-01-04T14:08:13;11.70;94.20
47590;DHT22;33316;52.298;9.056;2023-01-04T14:10:44;11.80;94.20
47590;DHT22;33316;52.298;9.056;2023-01-04T14:13:14;11.80;94.20
47590;DHT22;33316;52.298;9.056;2023-01-04T14:15:41;11.80;94.20
47590;DHT22;33316;52.298;9.056;2023-01-04T14:18:24;11.80;94.40
47590;DHT22;33316;52.298;9.056;2023-01-04T14:20:51;11.80;94.10
47590;DHT22;33316;52.298;9.056;2023-01-04T14:23:27;11.90;94.10
47590;DHT22;33316;52.298;9.056;2023-01-04T14:25:54;11.90;94.10
47590;DHT22;33316;52.298;9.056;2023-01-04T14:28:32;11.90;94.00
47590;DHT22;33316;52.298;9.056;2023-01-04T14:31:19;11.90;94.10
47590;DHT22;33316;52.298;9.056;2023-01-04T14:33:49;11.90;94.20
47590;DHT22;33316;52.298;9.056;2023-01-04T14:36:19;11.90;94.20
47590;DHT22;33316;52.298;9.056;2023-01-04T14:38:53;11.90;94.10
47590;DHT22;33316;52.298;9.056;2023-01-04T14:41:23;11.90;94.10
47590;DHT22;33316;52.298;9.056;2023-01-04T14:43:51;11.90;94.10
47590;DHT22;33316;52.298;9.056;2023-01-04T14:46:19;11.90;94.10
47590;DHT22;33316;52.298;9.056;2023-01-04T14:48:45;12.00;94.10
47590;DHT22;33316;52.298;9.056;2023-01-04T14:51:17;12.00;94.10
47590;DHT22;33316;52.298;9.056;2023-01-04T14:53:45;12.00;94.10
47590;DHT22;33316;52.298;9.056;2023-01-04T14:56:13;12.00;94.00
47590;DHT22;33316;52.298;9.056;2023-01-04T14:58:40;12.00;94.00
47590;DHT22;33316;52.298;9.056;2023-01-04T15:01:07;12.00;94.00
47590;DHT22;33316;52.298;9.056;2023-01-04T15:03:34;12.00;94.00
47590;DHT22;33316;52.298;9.056;2023-01-04T15:06:00;12.00;94.00
47590;DHT22;33316;52.298;9.056;2023-01-04T15:08:29;12.00;93.90
47590;DHT22;33316;52.298;9.056;2023-01-04T15:10:56;12.00;93.90
47590;DHT22;33316;52.298;9.056;2023-01-04T15:13:22;12.00;93.80
47590;DHT22;33316;52.298;9.056;2023-01-04T15:15:49;12.00;93.70
47590;DHT22;33316;52.298;9.056;2023-01-04T15:18:16;12.00;93.70
47590;DHT22;33316;52.298;9.056;2023-01-04T15:20:43;12.10;93.70
47590;DHT22;33316;52.298;9.056;2023-01-04T15:23:10;12.00;93.60
47590;DHT22;33316;52.298;9.056;2023-01-04T15:25:39;12.00;93.60
47590;DHT22;33316;52.298;9.056;2023-01-04T15:28:06;12.10;93.50
47590;DHT22;33316;52.298;9.056;2023-01-04T15:30:33;12.10;93.50
47590;DHT22;33316;52.298;9.056;2023-01-04T15:33:00;12.10;93.50
47590;DHT22;33316;52.298;9.056;2023-01-04T15:35:27;12.10;93.50
47590;DHT22;33316;52.298;9.056;2023-01-04T15:37:53;12.10;93.40
47590;DHT22;33316;52.298;9.056;2023-01-04T15:40:20;12.10;93.40
47590;DHT22;33316;52.298;9.056;2023-01-04T15:42:48;12.10;93.40
47590;DHT22;33316;52.298;9.056;2023-01-04T15:45:25;12.10;93.40
47590;DHT22;33316;52.298;9.056;2023-01-04T15:47:52;12.10;93.40
47590;DHT22;33316;52.298;9.056;2023-01-04T15:50:22;12.10;93.40
47590;DHT22;33316;52.298;9.056;2023-01-04T15:52:49;12.00;93.30
47590;DHT22;33316;52.298;9.056;2023-01-04T15:55:15;12.10;93.30
47590;DHT22;33316;52.298;9.056;2023-01-04T15:57:42;12.00;93.20
47590;DHT22;33316;52.298;9.056;2023-01-04T16:00:12;12.10;93.20
47590;DHT22;33316;52.298;9.056;2023-01-04T16:02:38;12.10;93.20
47590;DHT22;33316;52.298;9.056;2023-01-04T16:05:06;12.10;93.10
47590;DHT22;33316;52.298;9.056;2023-01-04T16:07:33;12.10;93.10
47590;DHT22;33316;52.298;9.056;2023-01-04T16:10:00;12.10;93.10
47590;DHT22;33316;52.298;9.056;2023-01-04T16:12:27;12.10;93.00
47590;DHT22;33316;52.298;9.056;2023-01-04T16:15:12;12.10;93.00
47590;DHT22;33316;52.298;9.056;2023-01-04T16:17:40;12.10;92.90
47590;DHT22;33316;52.298;9.056;2023-01-04T16:20:08;12.10;92.80